34NH weather

Public forecast

Using degrees Fahrenheit for public forecast. Weather courtesy of forecast.io.

Closest aviation weather report (METAR) to Stone Song Heliport

Closest report is Boire Field, 6.7 nm (12.5 km) ESE. Retrieved 2020/08/14 00:56 UTC (52 minutes ago):

KASH 140056Z 00000KT 10SM CLR 24/17 A3009 RMK AO2 SLP192 T02440167

Closest aviation forecast (TAF) to Stone Song Heliport

Closest forecast is Manchester-Boston Regional Airport, 12.2 nm (22.6 km) NE. Retrieved 2020-08-14 00:22 UTC (1 hour ago):

TAF KMHT 132320Z 1400/1424 VRB03KT P6SM BKN250 FM141600 06007KT P6SM BKN250